Date,TemperatureHighF,TemperatureAvgF,TemperatureLowF,DewpointHighF,DewpointAvgF,DewpointLowF,HumidityHigh,HumidityAvg,HumidityLow,PressureMaxIn,PressureMinIn,WindSpeedMaxMPH,WindSpeedAvgMPH,GustSpeedMaxMPH,PrecipitationSumIn
2013-1-1,22,13,8,13,4,-2,88,68,34,0.00,40.00,0,-999,0,0.00
2013-1-2,17,12,7,5,-2,-13,77,54,24,0.00,40.00,0,-999,0,0.00
2013-1-3,41,26,18,8,-4,-17,41,26,16,0.00,40.00,0,-999,0,0.00
2013-1-4,40,27,14,6,-1,-12,51,31,18,0.00,40.00,0,-999,0,0.00
2013-1-5,30,17,4,12,0,-15,74,50,20,0.00,40.00,0,-999,0,0.00
2013-1-6,40,28,16,12,-2,-22,51,29,8,0.00,40.00,0,-999,0,0.00
2013-1-7,31,24,13,15,8,0,69,50,32,0.00,40.00,0,-999,0,0.00
2013-1-8,28,23,20,15,10,5,70,56,47,0.00,40.00,0,-999,0,0.00
2013-1-9,42,35,27,15,7,-1,58,33,19,0.00,40.00,0,-999,0,0.00
2013-1-10,37,32,21,16,9,-2,80,42,19,0.00,40.00,0,-999,0,0.00
2013-1-11,22,6,-6,18,2,-10,90,85,80,0.00,40.00,0,-999,0,0.00
2013-1-12,0,-5,-12,-5,-9,-16,83,80,73,0.00,40.00,0,-999,0,0.00
2013-1-13,-1,-9,-18,-7,-14,-23,83,79,76,0.00,40.00,0,-999,0,0.00
2013-1-14,8,-4,-16,3,-12,-22,80,69,48,0.00,40.00,0,-999,0,0.00
2013-1-15,31,22,8,22,16,4,88,76,59,0.00,40.00,0,-999,0,0.02
2013-1-16,36,28,13,17,11,6,75,51,33,0.00,40.00,0,-999,0,0.01
2013-1-17,40,23,8,16,6,-1,86,54,24,0.00,40.00,0,-999,0,0.00
2013-1-18,43,34,29,5,2,-4,33,24,18,0.00,40.00,0,-999,0,0.01
2013-1-19,39,32,28,5,-6,-11,37,20,13,0.00,40.00,0,-999,0,0.00
2013-1-20,30,26,12,21,6,-3,93,43,24,0.00,40.00,0,-999,0,0.00
2013-1-21,39,33,26,12,4,-12,49,32,12,0.00,40.00,0,-999,0,0.00
2013-1-22,44,35,21,10,-4,-14,39,20,9,0.00,40.00,0,-999,0,0.00
2013-1-23,44,38,32,5,-2,-7,30,19,13,0.00,40.00,0,-999,0,0.01
2013-1-24,39,32,24,17,10,-6,69,41,15,0.00,40.00,0,-999,0,0.00
2013-1-25,40,30,22,15,8,3,68,42,25,0.00,40.00,0,-999,0,0.00
2013-1-26,39,31,24,19,17,14,69,57,41,0.00,40.00,0,-999,0,0.00
2013-1-27,33,25,16,23,18,14,97,76,54,0.00,40.00,0,-999,0,0.01
2013-1-28,15,10,-1,13,8,-5,93,89,83,0.00,40.00,0,-999,0,0.01
2013-1-29,14,4,-2,7,-1,-9,85,78,67,0.00,40.00,0,-999,0,0.00
2013-1-30,20,15,1,12,7,-8,77,70,61,0.00,40.00,0,-999,0,0.00
2013-1-31,25,23,20,14,12,7,69,61,54,0.00,40.00,0,-999,0,0.01
2013-2-1,31,23,20,18,11,6,89,63,42,0.00,40.00,0,-999,0,0.00
2013-2-2,32,20,8,14,7,0,81,59,26,0.00,40.00,0,-999,0,0.00
2013-2-3,38,27,11,8,2,-6,81,38,17,0.00,40.00,0,-999,0,0.00
2013-2-4,34,27,20,16,11,5,68,51,44,0.00,40.00,0,-999,0,0.00
2013-2-5,37,24,12,20,14,8,93,66,44,0.00,40.00,0,-999,0,0.00
2013-2-6,29,22,10,17,8,3,87,58,33,0.00,40.00,0,-999,0,0.00
2013-2-7,34,18,2,15,-5,-13,85,45,13,0.00,40.00,0,-999,0,0.00
2013-2-8,30,22,15,13,-1,-12,84,38,19,0.00,40.00,0,-999,0,0.00
2013-2-9,19,16,11,15,12,8,93,87,73,0.00,40.00,0,-999,0,0.01
2013-2-10,14,8,0,8,3,-6,88,78,47,0.00,40.00,0,-999,0,0.01
2013-2-11,20,5,-8,3,-6,-13,81,63,37,0.00,40.00,0,-999,0,0.00
2013-2-12,26,14,5,11,5,-7,86,67,46,0.00,40.00,0,-999,0,0.00
2013-2-13,29,22,10,16,10,7,92,63,43,0.00,40.00,0,-999,0,0.01
2013-2-14,17,10,6,12,5,2,88,78,59,0.00,40.00,0,-999,0,0.00
2013-2-15,28,19,7,16,8,-3,88,66,27,0.00,40.00,0,-999,0,0.01
2013-2-16,42,31,22,18,8,-2,72,41,16,0.00,40.00,0,-999,0,0.01
2013-2-17,31,22,13,18,6,-6,71,51,20,0.00,40.00,0,-999,0,0.00
2013-2-18,18,10,-2,8,2,-6,89,70,51,0.00,40.00,0,-999,0,0.00
2013-2-19,35,21,-5,4,-10,-23,67,31,9,0.00,40.00,0,-999,0,0.01
2013-2-20,31,20,9,12,5,-1,78,54,30,0.00,40.00,0,-999,0,0.01
2013-2-21,24,13,4,13,7,1,92,77,53,0.00,40.00,0,-999,0,0.00
2013-2-22,21,7,-6,7,0,-10,86,71,46,0.00,40.00,0,-999,0,0.00
2013-2-23,22,18,6,18,11,-1,87,75,62,0.00,40.00,0,-999,0,0.01
2013-2-24,24,13,0,6,-4,-100,77,58,39,0.00,40.00,0,-999,0,0.00
2013-2-25,35,18,-1,11,1,-12,68,49,21,0.00,40.00,0,-999,0,0.01
2013-2-26,23,15,4,15,6,-3,89,67,43,0.00,40.00,0,-999,0,0.01
2013-2-27,21,10,-5,7,-1,-10,79,63,42,0.00,40.00,0,-999,0,0.00
2013-2-28,26,20,15,9,0,-14,57,42,18,0.00,40.00,0,-999,0,0.01
2013-3-1,39,31,22,23,12,-16,62,47,15,0.00,40.00,0,-999,0,0.00
2013-3-2,45,34,25,22,15,8,69,47,23,0.00,40.00,0,-999,0,0.00
2013-3-3,39,31,15,25,18,8,81,60,45,0.00,40.00,0,-999,0,0.00
2013-3-4,15,9,-6,12,-7,-20,90,49,25,0.00,40.00,0,-999,0,0.00
2013-3-5,30,14,-6,6,-7,-21,54,39,19,0.00,40.00,0,-999,0,0.00
2013-3-6,40,29,14,18,8,-1,59,43,21,0.00,40.00,0,-999,0,0.00
2013-3-7,36,28,20,24,15,1,84,60,23,0.00,40.00,0,-999,0,0.00
2013-3-8,41,28,18,24,19,15,91,71,41,0.00,40.00,0,-999,0,0.00
2013-3-9,25,20,15,19,7,-100,82,65,47,0.00,40.00,0,-999,0,0.00
2013-3-10,38,28,16,15,6,-13,52,40,20,0.00,40.00,0,-999,0,0.00
2013-3-11,28,21,13,16,11,2,87,67,32,0.00,40.00,0,-999,0,0.00
2013-3-12,34,20,5,20,11,2,89,69,45,0.00,40.00,0,-999,0,0.00
2013-3-13,46,36,27,23,18,15,65,48,32,0.00,40.00,0,-999,0,0.01
2013-3-14,50,39,28,23,20,17,66,47,29,0.00,40.00,0,-999,0,0.00
2013-3-15,47,38,26,25,17,12,87,45,26,0.00,40.00,0,-999,0,0.00
2013-3-16,32,26,18,28,24,15,97,92,86,0.00,40.00,0,-999,0,0.01
2013-3-17,28,22,12,22,12,-2,85,66,51,0.00,40.00,0,-999,0,0.01
2013-3-18,20,14,8,11,1,-5,80,58,40,0.00,40.00,0,-999,0,0.00
2013-3-19,26,14,7,7,2,-6,91,58,37,0.00,40.00,0,-999,0,0.00
2013-3-20,36,27,8,21,10,-9,64,49,35,0.00,40.00,0,-999,0,0.00
2013-3-21,31,24,13,22,17,6,94,76,49,0.00,40.00,0,-999,0,0.00
2013-3-22,15,10,3,10,4,-1,87,78,49,0.00,40.00,0,-999,0,0.00
2013-3-23,12,2,-8,5,-3,-14,87,79,68,0.00,40.00,0,-999,0,0.01
2013-3-24,12,4,-7,-1,-6,-12,81,62,45,0.00,40.00,0,-999,0,0.00
2013-3-25,28,15,0,7,-2,-17,65,46,26,0.00,40.00,0,-999,0,0.01
2013-3-26,32,20,1,4,-2,-13,56,38,22,0.00,40.00,0,-999,0,0.00
2013-3-27,42,26,8,18,12,0,78,57,35,0.00,40.00,0,-999,0,0.00
2013-3-28,41,30,21,21,15,10,73,55,31,0.00,40.00,0,-999,0,0.00
2013-3-29,45,35,25,28,20,13,95,59,29,0.00,40.00,0,-999,0,0.00
2013-3-30,39,31,21,28,17,-100,97,65,38,0.00,40.00,0,-999,0,0.01
2013-3-31,42,31,22,24,15,9,85,55,31,0.00,40.00,0,-999,0,0.00
2013-4-1,39,27,16,22,14,9,92,62,31,0.00,40.00,0,-999,0,0.00
2013-4-2,46,32,19,19,13,3,70,46,30,0.00,40.00,0,-999,0,0.00
2013-4-3,45,35,27,24,18,11,81,51,34,0.00,40.00,0,-999,0,0.00
2013-4-4,48,40,26,28,23,19,81,51,33,0.00,40.00,0,-999,0,0.00
2013-4-5,44,38,30,31,26,20,95,63,42,0.00,40.00,0,-999,0,0.00
2013-4-6,42,33,26,26,21,16,80,63,37,0.00,40.00,0,-999,0,0.01
2013-4-7,38,32,27,27,22,16,91,67,46,0.00,40.00,0,-999,0,0.00
2013-4-8,28,20,11,27,17,8,95,89,81,0.00,40.00,0,-999,0,0.01
2013-4-9,17,9,4,12,6,1,89,85,79,0.00,40.00,0,-999,0,0.02
2013-4-10,29,20,6,24,15,3,90,81,66,0.00,40.00,0,-999,0,0.01
2013-4-11,38,30,26,27,21,15,91,68,48,0.00,40.00,0,-999,0,0.01
2013-4-12,32,24,17,19,12,1,95,65,30,0.00,40.00,0,-999,0,0.00
2013-4-13,36,30,20,29,19,8,92,63,40,0.00,40.00,0,-999,0,0.00
2013-4-14,22,17,10,16,6,-1,82,61,49,0.00,40.00,0,-999,0,0.00
2013-4-15,15,8,-3,9,4,-7,89,82,72,0.00,40.00,0,-999,0,0.00
2013-4-16,14,7,3,8,4,-1,89,85,77,0.00,40.00,0,-999,0,0.01
2013-4-17,16,8,-1,11,4,-5,87,84,78,0.00,40.00,0,-999,0,0.01
2013-4-18,31,18,-7,10,2,-11,84,53,31,0.00,40.00,0,-999,0,0.01
2013-4-19,33,27,18,22,15,7,76,62,52,0.00,40.00,0,-999,0,0.01
2013-4-20,37,29,21,29,21,17,92,74,44,0.00,40.00,0,-999,0,0.00
2013-4-21,30,25,15,26,22,13,97,91,74,0.00,40.00,0,-999,0,0.01
2013-4-22,16,10,-3,12,6,-8,92,85,77,0.00,40.00,0,-999,0,0.02
2013-4-23,29,14,-7,19,7,-11,83,74,57,0.00,40.00,0,-999,0,0.01
2013-4-24,33,30,28,19,11,5,56,45,34,0.00,40.00,0,-999,0,0.00
2013-4-25,44,36,27,15,8,1,56,33,20,0.00,40.00,0,-999,0,0.00
2013-4-26,51,39,24,22,15,11,64,40,27,0.00,40.00,0,-999,0,0.00
2013-4-27,53,41,28,22,17,12,62,40,22,0.00,40.00,0,-999,0,0.00
2013-4-28,45,37,32,34,27,19,95,69,34,0.00,40.00,0,-999,0,0.00
2013-4-29,47,40,27,30,22,17,92,52,33,0.00,40.00,0,-999,0,0.00
2013-4-30,24,20,17,23,19,15,96,94,92,0.00,40.00,0,-999,0,0.02
2013-5-1,22,16,9,18,13,6,93,86,75,0.00,40.00,0,-999,0,0.01
2013-5-2,37,24,6,21,14,3,88,67,46,0.00,40.00,0,-999,0,0.01
2013-5-3,46,35,21,30,20,13,87,58,31,0.00,40.00,0,-999,0,0.00
2013-5-4,35,31,28,31,28,27,97,91,83,0.00,40.00,0,-999,0,0.01
2013-5-5,43,33,20,27,17,-100,94,64,48,0.00,40.00,0,-999,0,0.00
2013-5-6,52,41,27,28,24,21,79,53,36,0.00,40.00,0,-999,0,0.00
2013-5-7,55,41,28,32,24,16,72,53,30,0.00,40.00,0,-999,0,0.00
2013-5-8,51,41,31,29,26,21,82,57,31,0.00,40.00,0,-999,0,0.00
2013-5-9,50,39,30,37,19,-100,88,67,41,0.00,40.00,0,-999,0,0.00
2013-5-10,54,40,30,37,17,-100,92,61,31,0.00,40.00,0,-999,0,0.00
2013-5-11,53,40,28,32,28,22,94,65,33,0.00,40.00,0,-999,0,0.00
2013-5-12,62,52,38,33,29,26,79,44,28,0.00,40.00,0,-999,0,0.01
2013-5-13,67,56,42,35,29,25,66,39,21,0.00,40.00,0,-999,0,0.00
2013-5-14,65,56,43,39,26,16,81,35,16,0.00,40.00,0,-999,0,0.00
2013-5-15,60,48,33,37,33,18,90,60,19,0.00,40.00,0,-999,0,0.00
2013-5-16,54,47,41,44,32,-100,87,69,52,0.00,40.00,0,-999,0,0.00
2013-5-17,53,45,39,46,38,30,99,78,60,0.00,40.00,0,-999,0,0.01
2013-5-18,48,38,31,41,35,29,97,87,64,0.00,40.00,0,-999,0,0.00
2013-5-19,49,39,34,40,29,-100,97,85,61,0.00,40.00,0,-999,0,0.00
2013-5-20,37,33,31,33,29,24,98,86,74,0.00,40.00,0,-999,0,0.03
2013-5-21,51,39,31,33,25,9,94,64,20,0.00,40.00,0,-999,0,0.01
2013-5-22,51,42,31,39,31,24,98,67,44,0.00,40.00,0,-999,0,0.00
2013-5-23,60,47,34,45,36,21,98,74,22,0.00,40.00,0,-999,0,0.00
2013-5-24,55,47,37,41,25,6,96,52,15,0.00,40.00,0,-999,0,0.00
2013-5-25,62,52,39,34,18,7,76,28,17,0.00,40.00,0,-999,0,0.00
2013-5-26,59,47,35,44,35,20,91,64,46,0.00,40.00,0,-999,0,0.00
2013-5-27,53,43,35,39,28,18,90,58,33,0.00,40.00,0,-999,0,0.00
2013-5-28,51,42,32,37,30,22,89,65,42,0.00,40.00,0,-999,0,0.00
2013-5-29,44,39,36,41,38,35,98,95,87,0.00,40.00,0,-999,0,0.02
2013-5-30,41,37,35,36,32,26,99,83,63,0.00,40.00,0,-999,0,0.01
2013-5-31,42,37,32,31,27,24,88,66,57,0.00,40.00,0,-999,0,0.00
2013-6-1,44,38,30,36,31,20,92,75,54,0.00,40.00,0,-999,0,0.00
2013-6-2,59,49,35,40,32,25,83,56,29,0.00,40.00,0,-999,0,0.00
2013-6-3,53,45,39,37,26,21,80,49,33,0.00,40.00,0,-999,0,0.00
2013-6-4,40,34,30,34,30,21,99,85,49,0.00,40.00,0,-999,0,0.00
2013-6-5,47,37,26,37,31,25,99,81,66,0.00,40.00,0,-999,0,0.00
2013-6-6,58,48,35,40,35,28,85,62,43,0.00,40.00,0,-999,0,0.01
2013-6-7,63,53,40,49,35,27,86,54,27,0.00,40.00,0,-999,0,0.00
2013-6-8,58,48,38,40,35,23,92,65,26,0.00,40.00,0,-999,0,0.01
2013-6-9,69,54,35,38,31,21,87,49,19,0.00,40.00,0,-999,0,0.00
2013-6-10,67,60,51,46,38,28,79,45,29,0.00,40.00,0,-999,0,0.00
2013-6-11,70,56,47,55,42,23,92,61,18,0.00,40.00,0,-999,0,0.00
2013-6-12,63,52,42,50,42,32,99,72,33,0.00,40.00,0,-999,0,0.02
2013-6-13,68,57,43,51,41,32,96,60,29,0.00,40.00,0,-999,0,0.01
2013-6-14,56,49,36,43,28,16,90,50,22,0.00,40.00,0,-999,0,0.00
2013-6-15,60,46,30,34,25,2,91,51,10,0.00,40.00,0,-999,0,0.00
2013-6-16,62,49,32,40,33,22,77,57,25,0.00,40.00,0,-999,0,0.00
2013-6-17,59,51,40,48,42,33,87,72,53,0.00,40.00,0,-999,0,0.01
2013-6-18,62,52,43,47,38,30,92,63,31,0.00,40.00,0,-999,0,0.00
2013-6-19,72,61,46,39,25,11,75,31,10,0.00,40.00,0,-999,0,0.01
2013-6-20,59,51,40,38,17,2,82,32,14,0.00,40.00,0,-999,0,0.00
2013-6-22,53,45,38,44,40,37,98,83,61,0.00,40.00,0,-999,0,0.02
2013-6-23,59,48,34,41,31,24,88,56,27,0.00,40.00,0,-999,0,0.01
2013-6-24,68,56,41,40,30,22,69,42,19,0.00,40.00,0,-999,0,0.00
2013-6-25,63,56,48,47,34,29,75,45,32,0.00,40.00,0,-999,0,0.00
2013-6-26,67,57,45,44,37,34,72,49,33,0.00,40.00,0,-999,0,0.00
2013-6-27,72,59,47,48,41,29,84,54,20,0.00,40.00,0,-999,0,0.00
2013-6-28,67,59,48,51,47,44,91,66,51,0.00,40.00,0,-999,0,0.00
2013-6-29,67,59,46,54,41,-100,84,63,55,0.00,40.00,0,-999,0,0.00
2013-6-30,66,58,49,52,46,40,82,66,51,0.00,40.00,0,-999,0,0.00
2013-7-1,66,56,43,49,45,38,85,68,51,0.00,40.00,0,-999,0,0.00
2013-7-2,71,57,44,50,43,38,92,63,34,0.00,40.00,0,-999,0,0.01
2013-7-3,74,66,51,49,42,36,69,44,30,0.00,40.00,0,-999,0,0.00
2013-7-4,66,57,49,53,39,-100,96,64,46,0.00,40.00,0,-999,0,0.02
2013-7-5,64,56,48,52,49,46,98,77,60,0.00,40.00,0,-999,0,0.03
2013-7-6,64,55,49,53,45,39,81,70,56,0.00,40.00,0,-999,0,0.01
2013-7-7,71,61,50,48,41,32,87,52,25,0.00,40.00,0,-999,0,0.00
2013-7-8,71,58,49,48,42,33,78,58,32,0.00,40.00,0,-999,0,0.00
2013-7-9,66,54,43,48,43,35,88,68,52,0.00,40.00,0,-999,0,0.00
2013-7-10,73,59,47,46,40,24,89,55,16,0.00,40.00,0,-999,0,0.00
2013-7-11,79,65,50,47,37,25,71,42,16,0.00,40.00,0,-999,0,0.69
2013-7-12,64,58,52,53,47,40,86,69,49,0.00,40.00,0,-999,0,0.68
2013-7-13,73,62,48,47,34,23,79,40,18,0.00,40.00,0,-999,0,0.00
2013-7-14,64,56,48,50,42,-100,99,70,51,0.00,40.00,0,-999,0,0.00
2013-7-15,75,60,51,47,41,33,83,54,22,0.00,40.00,0,-999,0,0.00
2013-7-16,73,60,51,50,46,36,86,63,39,0.00,40.00,0,-999,0,0.00
2013-7-17,73,62,48,51,46,40,87,58,40,0.00,40.00,0,-999,0,0.00
2013-7-18,70,64,52,52,47,40,80,55,44,0.00,40.00,0,-999,0,0.00
2013-7-19,73,62,48,51,45,40,86,57,38,0.00,40.00,0,-999,0,0.00
2013-7-20,71,60,48,45,41,37,73,52,38,0.00,40.00,0,-999,0,0.00
2013-7-21,74,60,44,45,37,29,75,46,27,0.00,40.00,0,-999,0,0.00
2013-7-22,77,63,45,41,30,15,57,33,10,0.00,40.00,0,-999,0,0.00
2013-7-23,70,61,49,40,36,32,59,41,29,0.00,40.00,0,-999,0,0.00
2013-7-24,71,58,43,45,40,33,80,54,25,0.00,40.00,0,-999,0,0.00
2013-7-25,61,54,44,54,45,30,97,75,48,0.00,40.00,0,-999,0,0.02
2013-7-26,65,56,43,50,46,42,97,71,53,0.00,40.00,0,-999,0,0.01
2013-7-27,66,53,47,51,42,39,89,68,40,0.00,40.00,0,-999,0,0.02
2013-7-28,60,52,44,48,43,38,92,71,54,0.00,40.00,0,-999,0,0.01
2013-7-29,58,52,45,49,45,37,92,77,58,0.00,40.00,0,-999,0,0.00
2013-7-30,66,56,48,47,40,32,89,57,29,0.00,40.00,0,-999,0,0.00
2013-7-31,67,56,40,48,44,38,95,67,47,0.00,40.00,0,-999,0,0.00
2013-8-1,68,57,45,51,42,37,88,60,40,0.00,40.00,0,-999,0,0.00
2013-8-2,69,58,47,51,42,27,93,61,21,0.00,40.00,0,-999,0,0.00
2013-8-3,67,56,44,56,50,42,94,80,65,0.00,40.00,0,-999,0,0.00
2013-8-4,73,60,44,54,43,22,92,63,15,0.00,40.00,0,-999,0,0.00
2013-8-5,72,58,43,51,39,24,94,57,17,0.00,40.00,0,-999,0,0.00
2013-8-6,65,55,42,48,42,37,90,64,49,0.00,40.00,0,-999,0,0.00
2013-8-7,68,54,40,49,42,37,87,66,43,0.00,40.00,0,-999,0,0.00
2013-8-8,64,50,43,51,44,36,96,81,47,0.00,40.00,0,-999,0,0.02
2013-8-9,55,48,43,50,46,42,98,92,68,0.00,40.00,0,-999,0,0.02
2013-8-10,67,56,45,48,42,35,96,61,38,0.00,40.00,0,-999,0,0.01
2013-8-11,66,54,44,45,39,33,91,61,35,0.00,40.00,0,-999,0,0.02
2013-8-12,66,52,42,48,33,-100,92,63,36,0.00,40.00,0,-999,0,0.01
2013-8-13,61,50,44,51,40,32,93,69,48,0.00,40.00,0,-999,0,0.01
2013-8-14,61,50,40,47,39,35,84,67,45,0.00,40.00,0,-999,0,0.00
2013-8-15,68,58,42,46,39,33,79,52,33,0.00,40.00,0,-999,0,0.00
2013-8-21,71,60,54,42,38,31,61,45,27,0.00,40.00,0,-999,0,0.00
2013-8-22,69,58,51,53,47,40,91,67,45,0.00,40.00,0,-999,0,0.00
2013-8-23,74,66,55,46,42,36,60,44,26,0.00,40.00,0,-999,0,0.00
2013-8-24,65,59,52,52,48,42,79,66,54,0.00,40.00,0,-999,0,0.00
2013-8-25,70,59,47,45,41,36,81,54,29,0.00,40.00,0,-999,0,0.00
2013-8-26,69,61,55,51,40,34,75,49,29,0.00,40.00,0,-999,0,0.00
2013-8-27,67,59,52,47,44,41,72,60,42,0.00,40.00,0,-999,0,0.00
2013-8-28,72,67,56,47,44,40,55,44,35,0.00,40.00,0,-999,0,0.00
2013-8-29,71,59,46,46,41,35,76,54,35,0.00,40.00,0,-999,0,0.00
2013-8-30,76,64,47,45,34,23,77,38,15,0.00,40.00,0,-999,0,0.00
2013-8-31,64,54,44,43,38,32,75,57,39,0.00,40.00,0,-999,0,0.00
2013-9-1,72,56,42,43,36,34,79,52,25,0.00,40.00,0,-999,0,0.00
2013-9-2,74,60,50,52,38,26,92,47,22,0.00,40.00,0,-999,0,0.00
2013-9-3,68,57,52,52,49,46,92,75,54,0.00,40.00,0,-999,0,0.00
2013-9-4,75,64,53,51,47,40,87,58,29,0.00,40.00,0,-999,0,0.00
2013-9-5,75,65,50,48,43,37,75,48,27,0.00,40.00,0,-999,0,0.00
2013-9-6,72,64,55,44,41,37,61,45,29,0.00,40.00,0,-999,0,0.00
2013-9-8,63,55,46,53,49,42,90,80,66,0.00,40.00,0,-999,0,0.00
2013-9-9,54,48,39,47,42,36,91,80,70,0.00,40.00,0,-999,0,0.00
2013-9-10,57,49,37,44,40,34,91,73,59,0.00,40.00,0,-999,0,0.00
2013-9-11,63,55,41,41,39,33,71,54,45,0.00,40.00,0,-999,0,0.00
2013-9-12,57,48,41,47,40,36,84,74,53,0.00,40.00,0,-999,0,0.00
2013-9-13,64,52,45,52,47,43,97,82,52,0.00,40.00,0,-999,0,0.00
2013-9-14,54,48,43,51,46,43,99,95,84,0.00,40.00,0,-999,0,0.04
2013-9-15,55,48,42,47,44,40,99,88,69,0.00,40.00,0,-999,0,0.01
2013-9-16,65,54,47,46,41,35,75,63,47,0.00,40.00,0,-999,0,0.00
2013-9-17,65,53,45,43,37,31,77,58,30,0.00,40.00,0,-999,0,0.00
2013-9-18,47,41,38,43,33,22,92,75,52,0.00,40.00,0,-999,0,0.01
2013-9-19,45,35,29,35,30,25,95,83,45,0.00,40.00,0,-999,0,0.00
2013-9-20,59,45,28,35,26,12,87,50,27,0.00,40.00,0,-999,0,0.01
2013-9-21,63,58,51,25,20,8,31,22,17,0.00,40.00,0,-999,0,0.00
2013-9-22,60,53,42,35,30,19,66,43,24,0.00,40.00,0,-999,0,0.00
2013-9-23,50,42,35,39,31,20,92,67,33,0.00,40.00,0,-999,0,0.00
2013-9-24,58,47,33,28,22,15,67,40,21,0.00,40.00,0,-999,0,0.00
2013-9-25,49,40,33,37,30,21,99,70,36,0.00,40.00,0,-999,0,0.00
2013-9-26,33,31,26,32,30,26,98,94,81,0.00,40.00,0,-999,0,0.04
2013-9-27,29,25,19,26,23,17,97,94,88,0.00,40.00,0,-999,0,0.03
2013-9-28,42,32,19,29,24,18,93,75,57,0.00,40.00,0,-999,0,0.01
2013-9-29,45,43,40,31,27,23,66,53,46,0.00,40.00,0,-999,0,0.01
2013-9-30,50,45,40,37,32,27,67,62,57,0.00,40.00,0,-999,0,0.00
2013-10-1,50,40,33,28,26,24,77,59,36,0.00,40.00,0,-999,0,0.00
2013-10-2,42,34,28,32,30,25,99,84,66,0.00,40.00,0,-999,0,0.02
2013-10-3,34,29,24,32,28,23,99,97,93,0.00,40.00,0,-999,0,0.04
2013-10-4,24,21,18,22,18,16,96,86,74,0.00,40.00,0,-999,0,0.06
2013-10-5,40,39,38,24,21,17,54,47,39,0.00,40.00,0,-999,0,0.00
2013-10-6,50,43,37,33,23,14,58,45,34,0.00,40.00,0,-999,0,0.00
2013-10-7,58,47,36,16,10,3,40,24,11,0.00,40.00,0,-999,0,0.00
2013-10-8,48,40,31,32,24,15,86,55,38,0.00,40.00,0,-999,0,0.00
2013-10-9,38,33,29,31,29,27,92,85,73,0.00,40.00,0,-999,0,0.00
2013-10-10,45,35,29,32,28,27,91,77,49,0.00,40.00,0,-999,0,0.00
2013-10-11,39,32,23,30,19,11,86,61,38,0.00,40.00,0,-999,0,0.00
2013-10-12,38,29,17,26,18,13,85,67,43,0.00,40.00,0,-999,0,0.00
2013-10-13,41,37,31,33,29,22,99,75,63,0.00,40.00,0,-999,0,0.00
2013-10-21,39,37,34,27,25,21,63,61,57,0.00,40.00,0,-999,0,0.00
2013-10-22,47,39,35,31,23,16,68,52,38,0.00,40.00,0,-999,0,0.00
2013-10-23,42,32,28,29,24,18,99,71,59,0.00,40.00,0,-999,0,0.00
2013-10-24,41,35,30,34,30,28,93,85,77,0.00,40.00,0,-999,0,0.00
2013-10-25,41,36,32,26,19,17,54,50,46,0.00,40.00,0,-999,0,0.00
2013-10-26,51,39,27,22,16,10,60,42,19,0.00,40.00,0,-999,0,0.00
2013-10-27,28,28,28,21,21,21,75,75,75,0.00,40.00,0,-999,0,0.00
2013-10-28,27,24,21,26,23,20,97,94,87,0.00,40.00,0,-999,0,0.00
2013-10-29,40,29,25,28,23,19,97,79,62,0.00,40.00,0,-999,0,0.00
2013-10-30,33,30,26,23,22,21,81,72,65,0.00,40.00,0,-999,0,0.00
2013-10-31,37,31,26,23,20,16,77,63,52,0.00,40.00,0,-999,0,0.00
2013-11-1,36,25,17,17,14,9,85,66,38,0.00,40.00,0,-999,0,0.00
2013-11-2,47,40,19,12,3,-2,69,25,13,0.00,40.00,0,-999,0,0.00
2013-11-3,39,30,17,22,13,7,93,53,33,0.00,40.00,0,-999,0,0.00
2013-11-12,54,42,25,19,8,-4,48,28,10,0.00,40.00,0,-999,0,0.00
2013-11-13,44,41,36,26,24,23,67,52,43,0.00,40.00,0,-999,0,0.00
2013-11-14,34,26,21,21,11,7,81,54,35,0.00,40.00,0,-999,0,0.00
2013-11-15,32,27,18,11,8,4,62,44,37,0.00,40.00,0,-999,0,0.00
2013-11-16,25,23,20,20,14,7,90,70,45,0.00,40.00,0,-999,0,0.00
2013-11-17,24,24,24,9,9,9,52,52,52,0.00,40.00,0,-999,0,0.00
2013-11-18,44,33,17,10,8,4,65,36,19,0.00,40.00,0,-999,0,0.00
2013-11-19,40,36,31,22,16,7,56,44,29,0.00,40.00,0,-999,0,0.00
2013-11-20,33,23,8,18,13,5,88,67,52,0.00,40.00,0,-999,0,0.00
2013-11-21,20,10,0,14,-1,-9,89,63,48,0.00,40.00,0,-999,0,0.00
2013-11-22,23,13,5,2,-1,-6,72,54,28,0.00,40.00,0,-999,0,0.00
2013-11-23,39,26,10,12,4,-8,66,40,22,0.00,40.00,0,-999,0,0.00
2013-11-24,41,31,15,19,8,-8,53,39,17,0.00,40.00,0,-999,0,0.00
2013-11-25,31,29,25,16,14,12,59,54,50,0.00,40.00,0,-999,0,0.00
2013-11-26,38,30,26,20,14,7,64,53,36,0.00,40.00,0,-999,0,0.00
2013-11-27,43,32,21,20,14,6,75,48,26,0.00,40.00,0,-999,0,0.00
2013-11-28,44,31,17,23,13,10,80,51,29,0.00,40.00,0,-999,0,0.00
2013-11-29,41,35,29,14,12,10,52,39,33,0.00,40.00,0,-999,0,0.00
2013-11-30,33,28,22,20,17,14,80,66,44,0.00,40.00,0,-999,0,0.00
2013-12-1,32,29,26,19,17,16,71,62,53,0.00,40.00,0,-999,0,0.00
2013-12-2,35,32,25,24,22,20,94,68,54,0.00,40.00,0,-999,0,0.00
2013-12-3,5,-2,-11,2,-6,-16,86,81,78,0.00,40.00,0,-999,0,0.01
2013-12-4,-7,-10,-16,-12,-16,-21,77,76,75,0.00,40.00,0,-999,0,0.00
2013-12-9,15,9,-19,4,-1,-24,75,64,48,0.00,40.00,0,-999,0,0.01
2013-12-10,17,10,-1,3,0,-4,87,63,50,0.00,40.00,0,-999,0,0.00
2013-12-11,26,17,-2,11,-1,-5,85,47,28,0.00,40.00,0,-999,0,0.00
2013-12-12,41,30,22,13,11,6,69,47,32,0.00,40.00,0,-999,0,0.00
2013-12-13,24,20,16,16,12,8,83,71,65,0.00,40.00,0,-999,0,0.00
2013-12-15,37,35,33,7,4,1,28,26,22,0.00,40.00,0,-999,0,0.00
2013-12-16,35,31,28,12,10,8,47,42,35,0.00,40.00,0,-999,0,0.00
2013-12-17,44,38,30,12,9,4,48,32,19,0.00,40.00,0,-999,0,0.00
2013-12-18,42,37,24,14,9,2,64,33,21,0.00,40.00,0,-999,0,0.01
2013-12-19,23,14,2,17,9,-2,89,80,61,0.00,40.00,0,-999,0,0.00
2013-12-20,18,8,0,7,0,-5,84,72,48,0.00,40.00,0,-999,0,0.00
2013-12-21,20,13,9,15,8,1,91,78,59,0.00,40.00,0,-999,0,0.00
2013-12-22,13,10,7,5,3,1,87,73,60,0.00,40.00,0,-999,0,0.00
2013-12-23,33,26,10,21,14,-2,67,59,53,0.00,40.00,0,-999,0,0.01
2013-12-24,25,17,6,18,11,2,91,77,52,0.00,40.00,0,-999,0,0.00
2013-12-25,21,11,6,9,6,4,89,80,59,0.00,40.00,0,-999,0,0.00
2013-12-26,39,32,25,22,15,5,67,50,33,0.00,40.00,0,-999,0,0.00
2013-12-27,35,32,29,20,20,19,69,60,52,0.00,40.00,0,-999,0,0.00
2013-12-28,20,18,17,8,8,7,64,60,57,0.00,40.00,0,-999,0,0.00
2013-12-29,24,13,2,6,0,-4,75,56,45,0.00,40.00,0,-999,0,0.00
2013-12-30,26,25,24,14,12,9,65,57,47,0.00,40.00,0,-999,0,0.00
2013-12-31,28,26,25,20,17,13,80,67,55,0.00,40.00,0,-999,0,0.00
2014-1-1,19,15,9,16,10,4,92,80,56,0.00,40.00,0,-999,0,0.00
2014-1-2,31,18,10,18,7,0,69,62,53,0.00,40.00,0,-999,0,0.00